sensor_id;sensor_type;location;lat;lon;timestamp;pressure;altitude;pressure_sealevel;temperature;humidity
38253;BME280;24785;52.372;20.672;2023-02-28T00:02:32;102238.16;;;-5.15;100.00
38253;BME280;24785;52.372;20.672;2023-02-28T00:12:34;102244.13;;;-5.24;100.00
38253;BME280;24785;52.372;20.672;2023-02-28T00:22:36;102245.22;;;-5.27;100.00
38253;BME280;24785;52.372;20.672;2023-02-28T00:32:38;102244.63;;;-5.30;100.00
38253;BME280;24785;52.372;20.672;2023-02-28T00:42:39;102244.22;;;-5.47;100.00
38253;BME280;24785;52.372;20.672;2023-02-28T00:52:40;102246.91;;;-5.69;100.00
38253;BME280;24785;52.372;20.672;2023-02-28T01:02:41;102249.50;;;-6.12;100.00
38253;BME280;24785;52.372;20.672;2023-02-28T01:12:42;102240.13;;;-6.26;100.00
38253;BME280;24785;52.372;20.672;2023-02-28T01:22:43;102256.88;;;-6.40;100.00
38253;BME280;24785;52.372;20.672;2023-02-28T01:32:44;102259.47;;;-6.51;100.00
38253;BME280;24785;52.372;20.672;2023-02-28T01:42:45;102259.34;;;-6.60;100.00
38253;BME280;24785;52.372;20.672;2023-02-28T01:52:47;102267.88;;;-6.58;100.00
38253;BME280;24785;52.372;20.672;2023-02-28T02:02:51;102265.53;;;-6.50;100.00
38253;BME280;24785;52.372;20.672;2023-02-28T02:23:43;102258.16;;;-6.56;100.00
38253;BME280;24785;52.372;20.672;2023-02-28T02:44:27;102254.69;;;-6.79;100.00
38253;BME280;24785;52.372;20.672;2023-02-28T02:54:36;102253.47;;;-6.86;100.00
38253;BME280;24785;52.372;20.672;2023-02-28T03:04:42;102260.59;;;-6.77;100.00
38253;BME280;24785;52.372;20.672;2023-02-28T03:14:55;102269.72;;;-6.83;100.00
38253;BME280;24785;52.372;20.672;2023-02-28T03:25:12;102262.22;;;-6.99;100.00
38253;BME280;24785;52.372;20.672;2023-02-28T03:35:26;102265.84;;;-7.12;100.00
38253;BME280;24785;52.372;20.672;2023-02-28T03:45:30;102283.53;;;-7.28;100.00
38253;BME280;24785;52.372;20.672;2023-02-28T03:55:40;102274.25;;;-7.44;100.00
38253;BME280;24785;52.372;20.672;2023-02-28T04:05:55;102287.09;;;-7.53;100.00
38253;BME280;24785;52.372;20.672;2023-02-28T04:15:57;102286.72;;;-7.73;100.00
38253;BME280;24785;52.372;20.672;2023-02-28T04:25:58;102294.16;;;-7.79;100.00
38253;BME280;24785;52.372;20.672;2023-02-28T04:36:04;102285.19;;;-7.75;100.00
38253;BME280;24785;52.372;20.672;2023-02-28T04:46:06;102291.75;;;-7.82;100.00
38253;BME280;24785;52.372;20.672;2023-02-28T04:56:09;102299.69;;;-7.84;100.00
38253;BME280;24785;52.372;20.672;2023-02-28T05:06:12;102304.84;;;-7.71;100.00
38253;BME280;24785;52.372;20.672;2023-02-28T05:16:13;102320.50;;;-7.84;100.00
38253;BME280;24785;52.372;20.672;2023-02-28T05:26:14;102323.75;;;-7.93;100.00
38253;BME280;24785;52.372;20.672;2023-02-28T05:36:15;102337.47;;;-7.78;100.00
38253;BME280;24785;52.372;20.672;2023-02-28T05:46:16;102346.78;;;-7.63;100.00
38253;BME280;24785;52.372;20.672;2023-02-28T05:56:17;102357.59;;;-7.44;100.00
38253;BME280;24785;52.372;20.672;2023-02-28T06:06:18;102363.91;;;-7.35;100.00
38253;BME280;24785;52.372;20.672;2023-02-28T06:16:19;102371.81;;;-7.13;100.00
38253;BME280;24785;52.372;20.672;2023-02-28T06:26:20;102358.50;;;-6.73;100.00
38253;BME280;24785;52.372;20.672;2023-02-28T06:36:21;102359.44;;;-6.28;100.00
38253;BME280;24785;52.372;20.672;2023-02-28T06:46:22;102356.00;;;-5.84;100.00
38253;BME280;24785;52.372;20.672;2023-02-28T06:56:23;102349.53;;;-5.35;100.00
38253;BME280;24785;52.372;20.672;2023-02-28T07:06:24;102329.94;;;-4.77;100.00
38253;BME280;24785;52.372;20.672;2023-02-28T07:16:25;102320.28;;;-4.34;100.00
38253;BME280;24785;52.372;20.672;2023-02-28T07:26:26;102324.72;;;-4.04;100.00
38253;BME280;24785;52.372;20.672;2023-02-28T07:36:27;102319.91;;;-3.69;100.00
38253;BME280;24785;52.372;20.672;2023-02-28T07:46:28;102331.41;;;-3.31;100.00
38253;BME280;24785;52.372;20.672;2023-02-28T07:56:35;102321.50;;;-2.99;100.00
38253;BME280;24785;52.372;20.672;2023-02-28T08:06:36;102333.94;;;-2.72;100.00
38253;BME280;24785;52.372;20.672;2023-02-28T08:16:37;102334.94;;;-2.26;100.00
38253;BME280;24785;52.372;20.672;2023-02-28T08:26:39;102334.34;;;-2.10;90.23
38253;BME280;24785;52.372;20.672;2023-02-28T08:36:40;102332.06;;;-1.86;85.60
38253;BME280;24785;52.372;20.672;2023-02-28T08:46:41;102333.16;;;-1.61;79.28
38253;BME280;24785;52.372;20.672;2023-02-28T08:56:42;102330.97;;;-1.20;70.17
38253;BME280;24785;52.372;20.672;2023-02-28T09:06:43;102342.16;;;-1.18;69.36
38253;BME280;24785;52.372;20.672;2023-02-28T09:16:46;102335.25;;;-1.02;68.91
38253;BME280;24785;52.372;20.672;2023-02-28T09:26:47;102329.25;;;-0.50;67.55
38253;BME280;24785;52.372;20.672;2023-02-28T09:36:48;102331.81;;;-0.41;67.08
38253;BME280;24785;52.372;20.672;2023-02-28T09:46:54;102332.84;;;-0.34;68.07
38253;BME280;24785;52.372;20.672;2023-02-28T09:57:06;102340.53;;;-0.40;68.98
38253;BME280;24785;52.372;20.672;2023-02-28T10:17:40;102336.47;;;-0.01;66.59
38253;BME280;24785;52.372;20.672;2023-02-28T10:27:43;102343.13;;;0.12;65.74
38253;BME280;24785;52.372;20.672;2023-02-28T10:37:47;102327.81;;;0.15;64.11
38253;BME280;24785;52.372;20.672;2023-02-28T10:58:23;102298.84;;;1.06;62.20
38253;BME280;24785;52.372;20.672;2023-02-28T11:08:24;102281.84;;;1.17;64.03
38253;BME280;24785;52.372;20.672;2023-02-28T11:28:38;102263.69;;;1.14;63.08
38253;BME280;24785;52.372;20.672;2023-02-28T11:38:40;102254.25;;;1.36;59.51
38253;BME280;24785;52.372;20.672;2023-02-28T11:48:53;102242.91;;;1.19;63.75
38253;BME280;24785;52.372;20.672;2023-02-28T12:30:17;102194.75;;;2.49;59.98
38253;BME280;24785;52.372;20.672;2023-02-28T12:40:21;102182.41;;;1.87;56.62
38253;BME280;24785;52.372;20.672;2023-02-28T12:50:24;102170.72;;;2.73;57.26
38253;BME280;24785;52.372;20.672;2023-02-28T13:00:32;102170.06;;;2.34;57.02
38253;BME280;24785;52.372;20.672;2023-02-28T13:10:41;102177.28;;;2.17;56.66
38253;BME280;24785;52.372;20.672;2023-02-28T13:20:47;102163.53;;;2.21;57.64
38253;BME280;24785;52.372;20.672;2023-02-28T13:31:02;102161.25;;;1.87;58.19
38253;BME280;24785;52.372;20.672;2023-02-28T13:51:46;102129.19;;;2.59;57.80
38253;BME280;24785;52.372;20.672;2023-02-28T14:11:54;102115.22;;;1.74;59.61
38253;BME280;24785;52.372;20.672;2023-02-28T14:42:37;102084.75;;;3.13;55.60
38253;BME280;24785;52.372;20.672;2023-02-28T14:52:38;102082.94;;;2.99;55.93
38253;BME280;24785;52.372;20.672;2023-02-28T15:02:40;102088.03;;;2.71;57.01
38253;BME280;24785;52.372;20.672;2023-02-28T15:13:28;102093.31;;;2.71;57.05
38253;BME280;24785;52.372;20.672;2023-02-28T15:23:08;102081.19;;;2.25;57.34
38253;BME280;24785;52.372;20.672;2023-02-28T15:43:17;102084.84;;;1.47;60.35
38253;BME280;24785;52.372;20.672;2023-02-28T15:53:23;102099.41;;;0.96;61.15
38253;BME280;24785;52.372;20.672;2023-02-28T16:03:38;102108.97;;;-0.01;64.38
38253;BME280;24785;52.372;20.672;2023-02-28T16:13:39;102113.13;;;-0.49;66.95
38253;BME280;24785;52.372;20.672;2023-02-28T16:23:40;102106.59;;;-1.13;71.23
38253;BME280;24785;52.372;20.672;2023-02-28T16:33:43;102115.69;;;-1.51;74.45
38253;BME280;24785;52.372;20.672;2023-02-28T16:43:50;102120.38;;;-1.63;77.27
38253;BME280;24785;52.372;20.672;2023-02-28T16:53:51;102134.25;;;-2.24;79.11
38253;BME280;24785;52.372;20.672;2023-02-28T17:03:53;102150.06;;;-3.07;82.47
38253;BME280;24785;52.372;20.672;2023-02-28T17:13:54;102152.84;;;-3.19;87.18
38253;BME280;24785;52.372;20.672;2023-02-28T17:23:55;102154.53;;;-3.27;91.37
38253;BME280;24785;52.372;20.672;2023-02-28T17:33:56;102148.47;;;-3.37;95.97
38253;BME280;24785;52.372;20.672;2023-02-28T17:43:57;102130.13;;;-3.57;98.87
38253;BME280;24785;52.372;20.672;2023-02-28T17:53:58;102115.53;;;-3.78;100.00
38253;BME280;24785;52.372;20.672;2023-02-28T18:04:00;102109.31;;;-3.87;100.00
38253;BME280;24785;52.372;20.672;2023-02-28T18:14:01;102094.56;;;-4.17;100.00
38253;BME280;24785;52.372;20.672;2023-02-28T18:24:02;102086.53;;;-4.45;100.00
38253;BME280;24785;52.372;20.672;2023-02-28T18:34:04;102086.25;;;-4.51;100.00
38253;BME280;24785;52.372;20.672;2023-02-28T18:44:08;102065.44;;;-4.53;100.00
38253;BME280;24785;52.372;20.672;2023-02-28T18:54:10;102084.97;;;-4.66;100.00
38253;BME280;24785;52.372;20.672;2023-02-28T19:04:14;102098.88;;;-4.96;100.00
38253;BME280;24785;52.372;20.672;2023-02-28T19:14:15;102091.88;;;-4.96;100.00
38253;BME280;24785;52.372;20.672;2023-02-28T19:24:16;102107.69;;;-4.97;100.00
38253;BME280;24785;52.372;20.672;2023-02-28T19:34:17;102108.50;;;-5.27;100.00
38253;BME280;24785;52.372;20.672;2023-02-28T19:44:18;102115.75;;;-5.31;100.00
38253;BME280;24785;52.372;20.672;2023-02-28T19:54:19;102131.19;;;-5.28;100.00
38253;BME280;24785;52.372;20.672;2023-02-28T20:04:22;102124.19;;;-5.48;100.00
38253;BME280;24785;52.372;20.672;2023-02-28T20:14:23;102137.22;;;-5.69;100.00
38253;BME280;24785;52.372;20.672;2023-02-28T20:24:25;102121.16;;;-5.85;100.00
38253;BME280;24785;52.372;20.672;2023-02-28T20:34:27;102097.81;;;-5.66;100.00
38253;BME280;24785;52.372;20.672;2023-02-28T20:44:29;102125.28;;;-6.04;100.00
38253;BME280;24785;52.372;20.672;2023-02-28T20:54:30;102103.59;;;-6.15;100.00
38253;BME280;24785;52.372;20.672;2023-02-28T21:04:31;102114.78;;;-6.13;100.00
38253;BME280;24785;52.372;20.672;2023-02-28T21:14:32;102113.19;;;-6.16;100.00
38253;BME280;24785;52.372;20.672;2023-02-28T21:24:33;102101.03;;;-6.26;100.00
38253;BME280;24785;52.372;20.672;2023-02-28T21:34:34;102101.19;;;-6.39;100.00
38253;BME280;24785;52.372;20.672;2023-02-28T21:44:35;102088.63;;;-6.45;100.00
38253;BME280;24785;52.372;20.672;2023-02-28T21:54:36;102103.81;;;-6.50;100.00
38253;BME280;24785;52.372;20.672;2023-02-28T22:04:37;102092.31;;;-6.48;100.00
38253;BME280;24785;52.372;20.672;2023-02-28T22:14:38;102083.66;;;-6.48;100.00
38253;BME280;24785;52.372;20.672;2023-02-28T22:24:41;102075.34;;;-6.42;100.00
38253;BME280;24785;52.372;20.672;2023-02-28T22:34:42;102068.50;;;-6.54;100.00
38253;BME280;24785;52.372;20.672;2023-02-28T22:44:43;102063.63;;;-6.48;100.00
38253;BME280;24785;52.372;20.672;2023-02-28T22:54:50;102065.91;;;-6.54;100.00
38253;BME280;24785;52.372;20.672;2023-02-28T23:04:53;102087.72;;;-6.55;100.00
38253;BME280;24785;52.372;20.672;2023-02-28T23:14:54;102098.47;;;-6.49;100.00
38253;BME280;24785;52.372;20.672;2023-02-28T23:24:55;102074.53;;;-6.43;100.00
38253;BME280;24785;52.372;20.672;2023-02-28T23:34:56;102076.06;;;-6.40;100.00
38253;BME280;24785;52.372;20.672;2023-02-28T23:44:56;102092.63;;;-6.30;100.00
38253;BME280;24785;52.372;20.672;2023-02-28T23:54:57;102090.59;;;-6.26;100.00
